createdAt,value
2018-11-28T00:00:54.681Z,100999.18
2018-11-28T00:03:21.524Z,100991.02
2018-11-28T00:05:48.361Z,100988.23
2018-11-28T00:08:15.201Z,100990.72
2018-11-28T00:10:42.049Z,100985.92
2018-11-28T00:13:08.893Z,100979.66
2018-11-28T00:15:36.400Z,100977.34
2018-11-28T00:18:03.380Z,100979.08
2018-11-28T00:20:30.280Z,100974.64
2018-11-28T00:22:57.130Z,100977.88
2018-11-28T00:25:24.030Z,100982.10
2018-11-28T00:27:50.825Z,100977.80
2018-11-28T00:30:19.488Z,100976.89
2018-11-28T00:32:46.343Z,100973.19
2018-11-28T00:35:14.132Z,100978.55
2018-11-28T00:37:41.004Z,100977.34
2018-11-28T00:40:09.760Z,100973.81
2018-11-28T00:42:36.593Z,100972.60
2018-11-28T00:45:05.392Z,100972.07
2018-11-28T00:47:32.241Z,100974.19
2018-11-28T00:49:59.093Z,100979.11
2018-11-28T00:52:25.949Z,100973.97
2018-11-28T00:54:52.807Z,100965.30
2018-11-28T00:57:19.689Z,100970.09
2018-11-28T00:59:46.558Z,100965.11
2018-11-28T01:02:13.441Z,100959.55
2018-11-28T01:04:40.280Z,100963.09
2018-11-28T01:07:07.125Z,100961.49
2018-11-28T01:09:33.985Z,100964.41
2018-11-28T01:12:00.831Z,100959.44
2018-11-28T01:14:27.677Z,100951.35
2018-11-28T01:16:54.627Z,100956.61
2018-11-28T01:19:21.472Z,100959.02
2018-11-28T01:21:48.344Z,100955.98
2018-11-28T01:24:15.185Z,100957.73
2018-11-28T01:26:42.033Z,100953.59
2018-11-28T01:29:08.874Z,100965.53
2018-11-28T01:31:35.711Z,100963.27
2018-11-28T01:34:02.569Z,100962.61
2018-11-28T01:36:29.433Z,100958.30
2018-11-28T01:38:56.278Z,100955.35
2018-11-28T01:41:23.128Z,100956.73
2018-11-28T01:43:49.988Z,100958.28
2018-11-28T01:46:16.841Z,100954.79
2018-11-28T01:48:43.730Z,100950.63
2018-11-28T01:51:10.569Z,100954.86
2018-11-28T01:53:37.435Z,100958.02
2018-11-28T01:56:04.370Z,100952.85
2018-11-28T01:58:31.210Z,100956.53
2018-11-28T02:00:58.021Z,100953.18
2018-11-28T02:03:24.861Z,100952.30
2018-11-28T02:05:51.706Z,100956.66
2018-11-28T02:08:18.572Z,100957.58
2018-11-28T02:10:45.433Z,100949.95
2018-11-28T02:13:12.281Z,100952.83
2018-11-28T02:15:40.341Z,100950.20
2018-11-28T02:18:07.188Z,100949.75
2018-11-28T02:20:34.064Z,100949.42
2018-11-28T02:23:00.927Z,100946.49
2018-11-28T02:25:27.796Z,100946.03
2018-11-28T02:27:54.664Z,100942.33
2018-11-28T02:30:21.545Z,100937.34
2018-11-28T02:32:48.950Z,100941.11
2018-11-28T02:35:16.242Z,100939.45
2018-11-28T02:37:43.142Z,100935.61
2018-11-28T02:40:11.834Z,100933.70
2018-11-28T02:42:38.747Z,100934.85
2018-11-28T02:45:22.579Z,100935.93
2018-11-28T02:47:50.386Z,100945.87
2018-11-28T02:50:17.307Z,100948.26
2018-11-28T02:52:44.181Z,100955.46
2018-11-28T02:55:11.920Z,100949.02
2018-11-28T02:57:39.146Z,100952.37
2018-11-28T03:00:13.790Z,100955.17
2018-11-28T03:02:40.671Z,100955.98
2018-11-28T03:05:09.029Z,100955.45
2018-11-28T03:07:35.900Z,100953.81
2018-11-28T03:10:03.222Z,100958.59
2018-11-28T03:12:30.088Z,100951.39
2018-11-28T03:14:56.957Z,100957.00
2018-11-28T03:17:24.806Z,100962.06
2018-11-28T03:19:51.770Z,100956.90
2018-11-28T03:22:18.677Z,100954.73
2018-11-28T03:24:45.541Z,100950.11
2018-11-28T03:27:12.409Z,100950.16
2018-11-28T03:29:39.278Z,100952.08
2018-11-28T03:32:06.146Z,100959.23
2018-11-28T03:34:33.016Z,100961.66
2018-11-28T03:36:59.889Z,100954.27
2018-11-28T03:39:26.757Z,100948.77
2018-11-28T03:41:53.626Z,100948.30
2018-11-28T03:44:20.498Z,100943.31
2018-11-28T03:46:47.371Z,100948.14
2018-11-28T03:49:14.229Z,100946.19
2018-11-28T03:51:41.105Z,100948.70
2018-11-28T03:54:07.979Z,100953.79
2018-11-28T03:56:34.862Z,100946.70
2018-11-28T03:59:01.730Z,100947.80
2018-11-28T04:01:28.601Z,100953.23
2018-11-28T04:03:55.485Z,100951.70
2018-11-28T04:06:22.348Z,100945.13
2018-11-28T04:08:49.228Z,100939.40
2018-11-28T04:11:16.102Z,100935.67
2018-11-28T04:13:42.993Z,100942.57
2018-11-28T04:16:09.861Z,100947.27
2018-11-28T04:18:36.727Z,100941.36
2018-11-28T04:21:03.616Z,100944.88
2018-11-28T04:23:30.503Z,100947.68
2018-11-28T04:25:57.369Z,100948.71
2018-11-28T04:28:24.275Z,100947.42
2018-11-28T04:30:51.165Z,100955.28
2018-11-28T04:33:18.160Z,100953.38
2018-11-28T04:35:45.029Z,100953.21
2018-11-28T04:38:11.898Z,100956.16
2018-11-28T04:40:39.723Z,100953.95
2018-11-28T04:43:06.561Z,100950.19
2018-11-28T04:45:33.422Z,100955.13
2018-11-28T04:48:00.260Z,100960.05
2018-11-28T04:50:27.116Z,100956.53
2018-11-28T04:52:53.980Z,100957.84
2018-11-28T04:55:20.830Z,100956.22
2018-11-28T04:57:47.798Z,100953.94
2018-11-28T05:00:16.642Z,100959.45
2018-11-28T05:02:43.504Z,100956.59
2018-11-28T05:05:10.605Z,100952.48
2018-11-28T05:07:37.510Z,100951.73
2018-11-28T05:10:09.439Z,100955.87
2018-11-28T05:12:36.285Z,100950.55
2018-11-28T05:15:03.756Z,100953.06
2018-11-28T05:17:30.617Z,100954.20
2018-11-28T05:19:57.476Z,100957.12
2018-11-28T05:22:24.325Z,100949.46
2018-11-28T05:24:51.177Z,100953.23
2018-11-28T05:27:18.023Z,100948.49
2018-11-28T05:29:44.889Z,100951.00
2018-11-28T05:32:11.741Z,100955.13
2018-11-28T05:34:38.585Z,100953.39
2018-11-28T05:37:05.738Z,100955.13
2018-11-28T05:39:32.589Z,100959.13
2018-11-28T05:41:59.445Z,100964.36
2018-11-28T05:44:26.282Z,100965.01
2018-11-28T05:46:53.140Z,100961.03
2018-11-28T05:49:20.473Z,100961.88
2018-11-28T05:51:47.349Z,100964.41
2018-11-28T05:54:14.206Z,100963.30
2018-11-28T05:56:41.045Z,100957.88
2018-11-28T05:59:07.923Z,100959.37
2018-11-28T06:01:34.788Z,100964.72
2018-11-28T06:04:01.637Z,100962.30
2018-11-28T06:06:28.492Z,100969.06
2018-11-28T06:08:55.337Z,100967.38
2018-11-28T06:11:22.194Z,100971.67
2018-11-28T06:13:49.027Z,100970.58
2018-11-28T06:16:15.881Z,100969.11
2018-11-28T06:18:42.735Z,100970.16
2018-11-28T06:21:09.583Z,100973.95
2018-11-28T06:23:36.420Z,100975.20
2018-11-28T06:26:03.276Z,100975.93
2018-11-28T06:28:30.130Z,100980.12
2018-11-28T06:30:56.970Z,100981.73
2018-11-28T06:33:23.825Z,100988.42
2018-11-28T06:35:50.677Z,100983.95
2018-11-28T06:38:17.533Z,100982.69
2018-11-28T06:40:44.380Z,100982.11
2018-11-28T06:43:11.263Z,100989.39
2018-11-28T06:45:38.109Z,100993.67
2018-11-28T06:48:05.001Z,100998.98
2018-11-28T06:50:31.862Z,100998.81
2018-11-28T06:52:58.713Z,100991.95
2018-11-28T06:55:25.577Z,100997.36
2018-11-28T06:57:52.448Z,100995.95
2018-11-28T07:00:21.038Z,100996.77
2018-11-28T07:02:48.802Z,100995.64
2018-11-28T07:05:15.652Z,101001.83
2018-11-28T07:07:42.499Z,100999.17
2018-11-28T07:10:11.509Z,101002.69
2018-11-28T07:12:38.441Z,101009.15
2018-11-28T07:15:08.121Z,101015.14
2018-11-28T07:17:35.024Z,101018.77
2018-11-28T07:20:01.873Z,101016.34
2018-11-28T07:22:28.746Z,101017.88
2018-11-28T07:24:55.597Z,101018.27
2018-11-28T07:27:23.302Z,101017.27
2018-11-28T07:29:49.297Z,101021.39
2018-11-28T07:32:16.149Z,101019.19
2018-11-28T07:34:43.025Z,101022.77
2018-11-28T07:37:09.885Z,101023.93
2018-11-28T07:39:36.754Z,101025.67
2018-11-28T07:42:03.677Z,101022.33
2018-11-28T07:44:30.537Z,101025.12
2018-11-28T07:46:57.393Z,101028.61
2018-11-28T07:49:24.248Z,101029.89
2018-11-28T07:51:51.085Z,101027.09
2018-11-28T07:54:17.950Z,101035.22
2018-11-28T07:56:44.828Z,101041.05
2018-11-28T07:59:11.682Z,101037.59
2018-11-28T08:01:38.537Z,101034.30
2018-11-28T08:04:05.526Z,101038.61
2018-11-28T08:06:32.393Z,101044.48
2018-11-28T08:08:59.234Z,101045.11
2018-11-28T08:11:26.103Z,101047.27
2018-11-28T08:13:53.021Z,101045.92
2018-11-28T08:16:20.527Z,101048.13
2018-11-28T08:18:47.652Z,101045.17
2018-11-28T08:21:14.931Z,101056.52
2018-11-28T08:23:41.817Z,101057.59
2018-11-28T08:26:08.708Z,101053.75
2018-11-28T08:28:36.154Z,101049.05
2018-11-28T08:31:02.402Z,101054.08
2018-11-28T08:33:29.249Z,101051.23
2018-11-28T08:35:56.104Z,101052.84
2018-11-28T08:38:22.952Z,101051.86
2018-11-28T08:40:49.809Z,101057.97
2018-11-28T08:43:16.660Z,101059.29
2018-11-28T08:45:43.620Z,101062.48
2018-11-28T08:48:15.033Z,101057.98
2018-11-28T08:50:41.885Z,101050.66
2018-11-28T08:53:08.740Z,101061.30
2018-11-28T08:55:35.601Z,101063.04
2018-11-28T08:58:02.456Z,101061.13
2018-11-28T09:00:29.305Z,101064.84
2018-11-28T09:02:57.090Z,101066.68
2018-11-28T09:05:23.952Z,101064.63
2018-11-28T09:07:50.791Z,101077.92
2018-11-28T09:10:18.349Z,101073.31
2018-11-28T09:12:45.845Z,101061.66
2018-11-28T09:15:27.062Z,101071.05
2018-11-28T09:17:54.184Z,101079.13
2018-11-28T09:20:21.036Z,101069.61
2018-11-28T09:22:47.944Z,101083.14
2018-11-28T09:25:16.389Z,101077.63
2018-11-28T09:27:44.288Z,101074.44
2018-11-28T09:30:14.867Z,101077.84
2018-11-28T09:32:41.782Z,101084.18
2018-11-28T09:35:09.586Z,101081.37
2018-11-28T09:37:36.442Z,101087.05
2018-11-28T09:40:06.881Z,101081.98
2018-11-28T09:42:33.741Z,101079.56
2018-11-28T09:47:51.097Z,101080.91
2018-11-28T09:50:20.779Z,101084.55
2018-11-28T09:52:47.658Z,101083.48
2018-11-28T09:55:15.553Z,101076.97
2018-11-28T09:57:42.445Z,101079.83
2018-11-28T10:00:19.846Z,101072.80
2018-11-28T10:02:47.114Z,101065.08
2018-11-28T10:05:17.015Z,101068.08
2018-11-28T10:07:43.937Z,101068.20
2018-11-28T10:10:11.686Z,101060.10
2018-11-28T10:12:38.607Z,101060.27
2018-11-28T10:15:12.884Z,101057.87
2018-11-28T10:17:39.767Z,101061.19
2018-11-28T10:20:07.649Z,101055.53
2018-11-28T10:22:34.529Z,101062.84
2018-11-28T10:25:01.416Z,101054.70
2018-11-28T10:27:28.274Z,101057.55
2018-11-28T10:29:55.154Z,101054.52
2018-11-28T10:32:22.034Z,101048.59
2018-11-28T10:34:48.908Z,101045.07
2018-11-28T10:37:15.973Z,101049.00
2018-11-28T10:39:42.856Z,101055.06
2018-11-28T10:42:09.737Z,101046.80
2018-11-28T10:44:36.613Z,101037.91
2018-11-28T10:47:03.511Z,101040.32
2018-11-28T10:49:30.397Z,101037.94
2018-11-28T10:51:57.318Z,101036.02
2018-11-28T10:54:24.226Z,101029.84
2018-11-28T10:56:51.142Z,101034.70
2018-11-28T10:59:17.913Z,101032.02
2018-11-28T11:01:50.877Z,101033.16
2018-11-28T11:04:22.032Z,101026.05
2018-11-28T11:06:54.507Z,101031.11
2018-11-28T11:09:27.191Z,101027.80
2018-11-28T11:11:59.639Z,101021.91
2018-11-28T11:14:32.232Z,101018.58
2018-11-28T11:16:59.012Z,101020.18
2018-11-28T11:19:25.796Z,101022.53
2018-11-28T11:21:52.589Z,101017.55
2018-11-28T11:24:19.357Z,101021.77
2018-11-28T11:26:46.145Z,101015.78
2018-11-28T11:29:12.960Z,101014.16
2018-11-28T11:31:39.741Z,101011.94
2018-11-28T11:34:06.516Z,101008.64
2018-11-28T11:36:33.292Z,101010.37
2018-11-28T11:39:00.192Z,101011.22
2018-11-28T11:41:26.985Z,101009.42
2018-11-28T11:43:53.756Z,101010.05
2018-11-28T11:46:20.545Z,101009.28
2018-11-28T11:48:47.310Z,101009.75
2018-11-28T11:51:14.121Z,101008.46
2018-11-28T11:53:40.882Z,100998.83
2018-11-28T11:56:07.668Z,100999.87
2018-11-28T11:58:34.442Z,101003.32
2018-11-28T12:01:01.222Z,101000.12
2018-11-28T12:03:27.990Z,100998.80
2018-11-28T12:05:56.121Z,100998.16
2018-11-28T12:08:23.728Z,101000.25
2018-11-28T12:10:50.489Z,100996.83
2018-11-28T12:13:17.385Z,100996.05
2018-11-28T12:15:44.118Z,100993.46
2018-11-28T12:18:10.896Z,100992.52
2018-11-28T12:20:40.133Z,100987.55
2018-11-28T12:23:06.965Z,100993.71
2018-11-28T12:25:33.776Z,100996.95
2018-11-28T12:28:00.572Z,100988.53
2018-11-28T12:30:27.340Z,100981.88
2018-11-28T12:32:54.119Z,100986.80
2018-11-28T12:35:20.883Z,100988.72
2018-11-28T12:37:47.666Z,100990.01
2018-11-28T12:40:15.275Z,100984.01
2018-11-28T12:42:46.387Z,100978.95
2018-11-28T12:45:14.132Z,100982.00
2018-11-28T12:47:41.608Z,100983.64
2018-11-28T12:50:23.683Z,100987.56
2018-11-28T12:52:51.081Z,100988.81
2018-11-28T12:55:18.372Z,100987.57
2018-11-28T12:57:45.181Z,100974.44
2018-11-28T13:00:14.132Z,100978.63
2018-11-28T13:02:40.925Z,100977.94
2018-11-28T13:05:13.292Z,100964.53
2018-11-28T13:07:40.156Z,100978.78
2018-11-28T13:10:13.480Z,100971.77
2018-11-28T13:12:40.429Z,100975.91
2018-11-28T13:15:11.052Z,100976.97
2018-11-28T13:17:37.892Z,100981.61
2018-11-28T13:20:06.201Z,100977.00
2018-11-28T13:22:33.088Z,100978.66
2018-11-28T13:24:59.847Z,100970.54
2018-11-28T13:27:26.632Z,100976.83
2018-11-28T13:29:53.397Z,100980.02
2018-11-28T13:32:20.200Z,100983.22
2018-11-28T13:34:46.961Z,100980.84
2018-11-28T13:37:13.784Z,100982.90
2018-11-28T13:39:40.543Z,100982.99
2018-11-28T13:42:07.368Z,100991.23
2018-11-28T13:44:34.136Z,100988.39
2018-11-28T13:47:00.913Z,100981.85
2018-11-28T13:49:27.680Z,100963.45
2018-11-28T13:51:54.461Z,100962.19
2018-11-28T13:54:21.947Z,100964.67
2018-11-28T13:57:04.814Z,100963.66
2018-11-28T13:59:14.792Z,100960.69
2018-11-28T14:01:41.569Z,100962.62
2018-11-28T14:04:08.344Z,100960.80
2018-11-28T14:06:35.122Z,100958.25
2018-11-28T14:09:01.930Z,100956.52
2018-11-28T14:11:28.673Z,100948.37
2018-11-28T14:13:55.444Z,100942.55
2018-11-28T14:16:22.227Z,100948.64
2018-11-28T14:18:48.997Z,100937.59
2018-11-28T14:21:15.835Z,100939.11
2018-11-28T14:23:42.600Z,100941.45
2018-11-28T14:26:09.436Z,100947.20
2018-11-28T14:28:36.176Z,100953.75
2018-11-28T14:31:02.960Z,100962.24
2018-11-28T14:35:27.165Z,100966.73
2018-11-28T14:37:54.025Z,100962.41
2018-11-28T14:40:22.826Z,100958.31
2018-11-28T14:42:51.628Z,100957.39
2018-11-28T14:45:18.782Z,100962.31
2018-11-28T14:47:46.202Z,100961.47
2018-11-28T14:50:14.798Z,100970.86
2018-11-28T14:52:41.597Z,100972.05
2018-11-28T14:55:14.392Z,100971.48
2018-11-28T14:57:41.189Z,100969.09
2018-11-28T15:00:14.237Z,100958.91
2018-11-28T15:02:41.115Z,100971.36
2018-11-28T15:05:20.873Z,100973.34
2018-11-28T15:07:48.936Z,100967.36
2018-11-28T15:10:15.765Z,100976.03
2018-11-28T15:12:42.613Z,100972.28
2018-11-28T15:15:09.383Z,100970.81
2018-11-28T15:17:36.217Z,100963.14
2018-11-28T15:20:04.484Z,100962.13
2018-11-28T15:22:31.273Z,100958.76
2018-11-28T15:24:58.161Z,100963.23
2018-11-28T15:27:24.945Z,100962.94
2018-11-28T15:29:51.732Z,100950.34
2018-11-28T15:32:18.516Z,100948.46
2018-11-28T15:34:45.277Z,100949.25
2018-11-28T15:37:12.164Z,100953.08
2018-11-28T15:39:38.920Z,100944.38
2018-11-28T15:42:05.713Z,100950.39
2018-11-28T15:44:32.473Z,100939.75
2018-11-28T15:47:00.539Z,100944.19
2018-11-28T15:49:27.746Z,100949.41
2018-11-28T15:51:56.089Z,100953.67
2018-11-28T15:54:22.884Z,100944.30
2018-11-28T15:56:49.641Z,100938.48
2018-11-28T15:59:16.438Z,100941.83
2018-11-28T16:01:43.188Z,100953.50
2018-11-28T16:04:09.975Z,100948.73
2018-11-28T16:06:36.732Z,100948.86
2018-11-28T16:09:06.529Z,100953.91
2018-11-28T16:11:33.321Z,100950.19
2018-11-28T16:14:00.109Z,100952.24
2018-11-28T16:16:26.868Z,100951.80
2018-11-28T16:18:57.858Z,100947.76
2018-11-28T16:21:20.453Z,100948.11
2018-11-28T16:23:47.233Z,100950.44
2018-11-28T16:26:14.003Z,100948.27
2018-11-28T16:28:40.820Z,100945.42
2018-11-28T16:31:07.606Z,100949.17
2018-11-28T16:33:34.457Z,100937.48
2018-11-28T16:36:02.068Z,100935.59
2018-11-28T16:38:28.844Z,100936.52
2018-11-28T16:40:55.644Z,100937.45
2018-11-28T16:43:22.435Z,100940.95
2018-11-28T16:45:49.280Z,100944.58
2018-11-28T16:48:16.081Z,100940.95
2018-11-28T16:50:42.837Z,100947.16
2018-11-28T16:53:09.669Z,100942.99
2018-11-28T16:55:36.432Z,100948.02
2018-11-28T16:58:03.241Z,100955.33
2018-11-28T17:00:30.774Z,100950.96
2018-11-28T17:02:57.574Z,100951.33
2018-11-28T17:05:24.339Z,100957.53
2018-11-28T17:07:51.537Z,100960.61
2018-11-28T17:10:19.592Z,100967.16
2018-11-28T17:12:47.433Z,100968.38
2018-11-28T17:15:15.233Z,100967.00
2018-11-28T17:17:42.152Z,100964.70
2018-11-28T17:20:10.441Z,100964.87
2018-11-28T17:22:37.221Z,100961.47
2018-11-28T17:25:05.256Z,100959.69
2018-11-28T17:27:32.362Z,100955.87
2018-11-28T17:29:58.885Z,100962.03
2018-11-28T17:32:25.678Z,100973.29
2018-11-28T17:34:52.472Z,100972.27
2018-11-28T17:37:19.232Z,100968.78
2018-11-28T17:39:46.029Z,100974.02
2018-11-28T17:42:12.857Z,100976.89
2018-11-28T17:44:39.718Z,100976.27
2018-11-28T17:47:06.472Z,100977.66
2018-11-28T17:49:33.271Z,100978.84
2018-11-28T17:52:00.044Z,100973.71
2018-11-28T17:54:26.881Z,100972.52
2018-11-28T17:56:53.652Z,100971.23
2018-11-28T17:59:20.429Z,100965.48
2018-11-28T18:01:47.290Z,100960.34
2018-11-28T18:04:14.085Z,100961.80
2018-11-28T18:06:40.854Z,100962.70
2018-11-28T18:09:09.540Z,100954.02
2018-11-28T18:11:36.312Z,100959.72
2018-11-28T18:14:03.180Z,100953.25
2018-11-28T18:16:29.991Z,100951.30
2018-11-28T18:18:56.772Z,100961.00
2018-11-28T18:21:23.540Z,100962.28
2018-11-28T18:23:50.457Z,100961.39
2018-11-28T18:26:17.224Z,100956.44
2018-11-28T18:28:44.168Z,100959.95
2018-11-28T18:31:10.969Z,100954.83
2018-11-28T18:33:37.752Z,100958.92
2018-11-28T18:36:05.014Z,100961.41
2018-11-28T18:38:31.781Z,100969.93
2018-11-28T18:40:58.564Z,100964.70
2018-11-28T18:43:25.328Z,100962.26
2018-11-28T18:45:53.417Z,100964.13
2018-11-28T18:48:20.185Z,100963.58
2018-11-28T18:50:47.005Z,100962.33
2018-11-28T18:53:13.865Z,100965.52
2018-11-28T18:55:40.645Z,100963.89
2018-11-28T18:58:08.728Z,100968.94
2018-11-28T19:00:35.544Z,100968.64
2018-11-28T19:03:02.365Z,100972.45
2018-11-28T19:05:29.148Z,100974.67
2018-11-28T19:07:55.936Z,100972.39
2018-11-28T19:10:26.328Z,100980.67
2018-11-28T19:12:50.702Z,100977.72
2018-11-28T19:15:19.525Z,100977.82
2018-11-28T19:17:46.938Z,100981.59
2018-11-28T19:20:14.657Z,100985.10
2018-11-28T19:22:41.621Z,100982.88
2018-11-28T19:25:10.480Z,100989.92
2018-11-28T19:27:37.230Z,101000.61
2018-11-28T19:30:10.236Z,100997.40
2018-11-28T19:32:36.801Z,100994.98
2018-11-28T19:35:03.993Z,100999.23
2018-11-28T19:37:30.785Z,100999.95
2018-11-28T19:39:57.577Z,100991.87
2018-11-28T19:42:24.353Z,101003.43
2018-11-28T19:44:51.161Z,100995.84
2018-11-28T19:47:17.924Z,100999.19
2018-11-28T19:49:44.741Z,100991.55
2018-11-28T19:52:11.518Z,100989.16
2018-11-28T19:54:38.281Z,100987.01
2018-11-28T19:57:05.388Z,100995.07
2018-11-28T19:59:32.160Z,100999.19
2018-11-28T20:01:59.183Z,100998.80
2018-11-28T20:04:25.969Z,101007.83
2018-11-28T20:06:52.914Z,101004.56
2018-11-28T20:09:21.394Z,101002.09
2018-11-28T20:11:48.169Z,100989.95
2018-11-28T20:14:15.226Z,100978.22
2018-11-28T20:16:42.025Z,100979.17
2018-11-28T20:19:08.797Z,100984.75
2018-11-28T20:21:35.596Z,100986.81
2018-11-28T20:24:02.379Z,100990.02
2018-11-28T20:26:29.173Z,100991.62
2018-11-28T20:28:55.945Z,100990.31
2018-11-28T20:31:22.752Z,100987.17
2018-11-28T20:33:49.522Z,100986.91
2018-11-28T20:36:16.314Z,100982.58
2018-11-28T20:38:43.118Z,100979.07
2018-11-28T20:41:09.907Z,100980.56
2018-11-28T20:43:36.657Z,100979.27
2018-11-28T20:46:03.453Z,100978.34
2018-11-28T20:48:30.228Z,100981.28
2018-11-28T20:50:57.023Z,100982.67
2018-11-28T20:53:23.817Z,100983.50
2018-11-28T20:55:50.732Z,100975.91
2018-11-28T20:58:17.508Z,100974.62
2018-11-28T21:00:44.289Z,100972.30
2018-11-28T21:03:11.086Z,100968.01
2018-11-28T21:05:37.856Z,100962.84
2018-11-28T21:08:06.449Z,100970.50
2018-11-28T21:10:35.104Z,100968.12
2018-11-28T21:13:01.976Z,100968.58
2018-11-28T21:15:28.749Z,100967.44
2018-11-28T21:17:55.532Z,100968.63
2018-11-28T21:20:22.496Z,100967.77
2018-11-28T21:22:56.282Z,100965.98
2018-11-28T21:25:23.053Z,100962.89
2018-11-28T21:27:50.280Z,100963.35
2018-11-28T21:30:17.954Z,100955.45
2018-11-28T21:32:44.733Z,100959.84
2018-11-28T21:35:18.472Z,100962.16
2018-11-28T21:37:45.251Z,100960.41
2018-11-28T21:40:12.116Z,100952.52
2018-11-28T21:42:38.900Z,100952.27
2018-11-28T21:45:08.116Z,100949.98
2018-11-28T21:47:34.900Z,100945.55
2018-11-28T21:50:01.661Z,100947.10
2018-11-28T21:52:28.448Z,100947.30
2018-11-28T21:54:55.212Z,100948.78
2018-11-28T21:57:22.044Z,100949.37
2018-11-28T21:59:48.826Z,100947.51
2018-11-28T22:02:15.617Z,100948.23
2018-11-28T22:04:42.404Z,100942.08
2018-11-28T22:07:09.197Z,100932.73
2018-11-28T22:09:35.964Z,100935.47
2018-11-28T22:12:02.760Z,100937.23
2018-11-28T22:14:29.534Z,100931.43
2018-11-28T22:16:56.330Z,100933.29
2018-11-28T22:19:23.103Z,100926.33
2018-11-28T22:21:49.900Z,100928.19
2018-11-28T22:24:16.684Z,100931.97
2018-11-28T22:26:43.580Z,100930.72
2018-11-28T22:29:10.369Z,100933.72
2018-11-28T22:31:37.141Z,100934.81
2018-11-28T22:34:04.168Z,100937.34
2018-11-28T22:36:30.928Z,100931.13
2018-11-28T22:38:57.737Z,100928.88
2018-11-28T22:41:24.498Z,100929.67
2018-11-28T22:43:51.285Z,100928.25
2018-11-28T22:46:18.044Z,100933.16
2018-11-28T22:48:44.830Z,100930.70
2018-11-28T22:51:11.616Z,100935.11
2018-11-28T22:53:38.395Z,100932.53
2018-11-28T22:56:05.180Z,100930.94
2018-11-28T22:58:31.970Z,100934.55
2018-11-28T23:01:04.550Z,100929.02
2018-11-28T23:03:31.428Z,100922.47
2018-11-28T23:05:58.225Z,100922.89
2018-11-28T23:08:25.001Z,100923.25
2018-11-28T23:10:51.764Z,100917.88
2018-11-28T23:13:22.851Z,100915.05
2018-11-28T23:15:49.629Z,100911.94
2018-11-28T23:18:16.412Z,100903.42
2018-11-28T23:20:43.184Z,100903.56
2018-11-28T23:23:09.972Z,100899.41
2018-11-28T23:25:36.932Z,100887.87
2018-11-28T23:28:03.741Z,100895.91
2018-11-28T23:30:30.508Z,100900.16
2018-11-28T23:32:57.305Z,100901.44
2018-11-28T23:35:24.177Z,100897.48
2018-11-28T23:37:51.332Z,100895.66
2018-11-28T23:40:18.922Z,100894.66
2018-11-28T23:42:45.717Z,100895.73
2018-11-28T23:45:13.042Z,100903.09
2018-11-28T23:47:39.832Z,100907.69
2018-11-28T23:50:09.078Z,100896.73
2018-11-28T23:52:35.834Z,100901.69
2018-11-28T23:55:02.736Z,100894.78
2018-11-28T23:57:29.493Z,100894.42
2018-11-28T23:59:56.363Z,100891.13
